createdAt,value
2019-03-12T00:00:55.614Z,3.60
2019-03-12T00:03:21.579Z,3.70
2019-03-12T00:05:47.564Z,3.60
2019-03-12T00:08:14.265Z,3.70
2019-03-12T00:10:40.246Z,3.80
2019-03-12T00:13:06.215Z,3.60
2019-03-12T00:15:32.198Z,3.50
2019-03-12T00:17:58.161Z,3.50
2019-03-12T00:20:24.148Z,3.50
2019-03-12T00:22:50.107Z,3.60
2019-03-12T00:25:16.129Z,3.60
2019-03-12T00:27:42.084Z,3.50
2019-03-12T00:30:08.853Z,3.50
2019-03-12T00:32:34.838Z,3.40
2019-03-12T00:35:00.812Z,3.40
2019-03-12T00:37:26.764Z,3.40
2019-03-12T00:39:52.726Z,3.30
2019-03-12T00:42:18.705Z,3.30
2019-03-12T00:44:44.687Z,3.40
2019-03-12T00:47:10.671Z,3.40
2019-03-12T00:49:37.357Z,3.30
2019-03-12T00:52:03.348Z,3.30
2019-03-12T00:54:30.046Z,3.40
2019-03-12T00:56:56.026Z,3.30
2019-03-12T00:59:21.988Z,3.30
2019-03-12T01:01:47.982Z,3.30
2019-03-12T01:04:13.951Z,3.40
2019-03-12T01:06:39.931Z,3.30
2019-03-12T01:09:05.885Z,3.40
2019-03-12T01:11:31.866Z,3.40
2019-03-12T01:13:57.829Z,3.40
2019-03-12T01:16:23.796Z,3.40
2019-03-12T01:18:50.511Z,3.40
2019-03-12T01:21:16.463Z,3.40
2019-03-12T01:23:43.177Z,3.40
2019-03-12T01:26:09.130Z,3.40
2019-03-12T01:28:35.860Z,3.40
2019-03-12T01:31:02.542Z,3.40
2019-03-12T01:33:28.521Z,3.40
2019-03-12T01:35:55.214Z,3.40
2019-03-12T01:38:21.184Z,3.40
2019-03-12T01:40:47.875Z,3.40
2019-03-12T01:43:13.864Z,3.40
2019-03-12T01:45:39.805Z,3.30
2019-03-12T01:48:05.792Z,3.40
2019-03-12T01:50:32.508Z,3.30
2019-03-12T01:52:58.504Z,3.30
2019-03-12T01:55:24.476Z,3.30
2019-03-12T01:57:51.209Z,3.10
2019-03-12T02:00:17.900Z,3.10
2019-03-12T02:02:43.847Z,3.10
2019-03-12T02:05:09.822Z,3.10
2019-03-12T02:07:35.769Z,3.00
2019-03-12T02:10:01.740Z,3.00
2019-03-12T02:12:28.430Z,2.90
2019-03-12T02:14:54.425Z,2.90
2019-03-12T02:17:20.394Z,2.90
2019-03-12T02:19:46.372Z,2.90
2019-03-12T02:22:12.348Z,2.90
2019-03-12T02:24:51.598Z,2.80
2019-03-12T02:27:05.093Z,2.80
2019-03-12T02:29:31.088Z,2.70
2019-03-12T02:31:57.079Z,2.80
2019-03-12T02:34:23.085Z,2.70
2019-03-12T02:36:49.043Z,2.70
2019-03-12T02:39:15.016Z,2.80
2019-03-12T02:41:40.987Z,2.80
2019-03-12T02:44:06.955Z,2.80
2019-03-12T02:46:32.935Z,2.80
2019-03-12T02:48:58.891Z,2.80
2019-03-12T02:51:24.861Z,2.70
2019-03-12T02:53:51.567Z,2.60
2019-03-12T02:56:17.556Z,2.60
2019-03-12T02:58:43.509Z,2.60
2019-03-12T03:01:09.498Z,2.60
2019-03-12T03:03:35.478Z,2.50
2019-03-12T03:06:01.475Z,2.40
2019-03-12T03:08:27.654Z,2.40
2019-03-12T03:10:54.247Z,2.40
2019-03-12T03:13:20.203Z,2.40
2019-03-12T03:15:46.938Z,2.50
2019-03-12T03:18:13.650Z,2.50
2019-03-12T03:20:39.620Z,2.40
2019-03-12T03:23:05.570Z,2.40
2019-03-12T03:25:31.533Z,2.30
2019-03-12T03:27:57.518Z,2.30
2019-03-12T03:30:23.471Z,2.30
2019-03-12T03:32:49.528Z,2.30
2019-03-12T03:35:15.498Z,2.30
2019-03-12T03:37:42.257Z,2.20
2019-03-12T03:40:08.206Z,2.20
2019-03-12T03:42:34.928Z,2.30
2019-03-12T03:45:00.882Z,2.20
2019-03-12T03:47:26.875Z,2.20
2019-03-12T03:49:52.829Z,2.20
2019-03-12T03:52:18.821Z,2.20
2019-03-12T03:54:45.514Z,2.30
2019-03-12T03:57:11.510Z,2.30
2019-03-12T03:59:37.467Z,2.30
2019-03-12T04:02:03.472Z,2.40
2019-03-12T04:04:29.437Z,2.30
2019-03-12T04:06:55.395Z,2.40
2019-03-12T04:09:21.395Z,2.40
2019-03-12T04:11:48.115Z,2.30
2019-03-12T04:14:14.103Z,2.30
2019-03-12T04:16:40.073Z,2.30
2019-03-12T04:19:06.839Z,2.20
2019-03-12T04:21:33.684Z,2.20
2019-03-12T04:23:59.592Z,2.20
2019-03-12T04:26:26.283Z,2.20
2019-03-12T04:28:52.266Z,2.10
2019-03-12T04:31:18.973Z,2.20
2019-03-12T04:33:44.985Z,2.20
2019-03-12T04:36:10.943Z,2.30
2019-03-12T04:38:37.645Z,2.30
2019-03-12T04:41:03.621Z,2.30
2019-03-12T04:43:29.614Z,2.30
2019-03-12T04:45:55.618Z,2.30
2019-03-12T04:48:21.583Z,2.30
2019-03-12T04:50:48.312Z,2.40
2019-03-12T04:53:14.253Z,2.40
2019-03-12T04:55:40.984Z,2.50
2019-03-12T04:58:07.660Z,2.50
2019-03-12T05:00:33.637Z,2.50
2019-03-12T05:03:00.350Z,2.60
2019-03-12T05:05:26.323Z,2.50
2019-03-12T05:07:53.022Z,2.60
2019-03-12T05:10:19.005Z,2.60
2019-03-12T05:12:44.970Z,2.60
2019-03-12T05:15:10.947Z,2.70
2019-03-12T05:17:36.922Z,2.70
2019-03-12T05:20:03.028Z,2.80
2019-03-12T05:22:28.994Z,2.80
2019-03-12T05:24:55.688Z,2.80
2019-03-12T05:27:24.749Z,2.80
2019-03-12T05:29:47.758Z,2.80
2019-03-12T05:32:13.731Z,2.80
2019-03-12T05:34:39.722Z,2.80
2019-03-12T05:37:06.447Z,2.90
2019-03-12T05:39:32.484Z,2.90
2019-03-12T05:41:59.229Z,3.00
2019-03-12T05:44:25.928Z,3.00
2019-03-12T05:46:51.925Z,3.00
2019-03-12T05:49:18.210Z,3.00
2019-03-12T05:51:45.130Z,3.20
2019-03-12T05:54:11.103Z,3.10
2019-03-12T05:56:37.078Z,3.20
2019-03-12T05:59:03.072Z,3.30
2019-03-12T06:01:29.135Z,3.30
2019-03-12T06:03:55.129Z,3.30
2019-03-12T06:06:21.101Z,3.40
2019-03-12T06:08:47.824Z,3.40
2019-03-12T06:11:13.774Z,3.40
2019-03-12T06:13:40.498Z,3.50
2019-03-12T06:16:07.214Z,3.50
2019-03-12T06:18:33.191Z,3.50
2019-03-12T06:20:59.200Z,3.60
2019-03-12T06:23:25.184Z,3.60
2019-03-12T06:25:51.162Z,3.60
2019-03-12T06:28:17.156Z,3.70
2019-03-12T06:30:43.098Z,3.70
2019-03-12T06:33:09.064Z,3.70
2019-03-12T06:35:35.054Z,3.80
2019-03-12T06:38:01.031Z,3.80
2019-03-12T06:40:27.017Z,3.80
2019-03-12T06:42:52.982Z,3.90
2019-03-12T06:45:18.974Z,4.00
2019-03-12T06:47:46.541Z,4.00
2019-03-12T06:50:10.966Z,4.10
2019-03-12T06:52:36.942Z,4.10
2019-03-12T06:55:02.927Z,4.20
2019-03-12T06:57:28.875Z,4.20
2019-03-12T06:59:54.864Z,4.40
2019-03-12T07:02:20.837Z,4.40
2019-03-12T07:04:46.827Z,4.40
2019-03-12T07:07:12.987Z,4.40
2019-03-12T07:09:38.835Z,4.40
2019-03-12T07:12:05.596Z,4.40
2019-03-12T07:14:32.301Z,4.40
2019-03-12T07:16:58.293Z,4.40
2019-03-12T07:19:24.264Z,4.40
2019-03-12T07:21:50.246Z,4.40
2019-03-12T07:24:16.221Z,4.40
2019-03-12T07:26:42.968Z,4.40
2019-03-12T07:29:09.654Z,4.50
2019-03-12T07:31:35.630Z,4.50
2019-03-12T07:34:01.601Z,4.50
2019-03-12T07:36:27.589Z,4.50
2019-03-12T07:38:53.568Z,4.50
2019-03-12T07:41:30.402Z,4.40
2019-03-12T07:43:45.550Z,4.40
2019-03-12T07:46:11.505Z,4.40
2019-03-12T07:48:37.470Z,4.50
2019-03-12T07:51:03.443Z,4.50
2019-03-12T07:53:29.433Z,4.60
2019-03-12T07:55:56.130Z,4.60
2019-03-12T07:58:34.925Z,4.60
2019-03-12T08:00:48.145Z,4.60
2019-03-12T08:03:14.122Z,4.60
2019-03-12T08:05:40.073Z,4.60
2019-03-12T08:08:06.064Z,4.60
2019-03-12T08:10:33.849Z,4.70
2019-03-12T08:12:58.083Z,4.70
2019-03-12T08:15:24.058Z,4.70
2019-03-12T08:17:50.055Z,4.70
2019-03-12T08:20:16.032Z,4.70
2019-03-12T08:22:41.982Z,4.70
2019-03-12T08:25:07.986Z,4.70
2019-03-12T08:27:33.954Z,4.70
2019-03-12T08:30:00.695Z,4.80
2019-03-12T08:32:27.385Z,4.80
2019-03-12T08:34:53.381Z,4.80
2019-03-12T08:37:19.358Z,4.80
2019-03-12T08:39:45.347Z,4.80
2019-03-12T08:42:11.329Z,4.90
2019-03-12T08:44:41.464Z,4.90
2019-03-12T08:47:04.079Z,4.90
2019-03-12T08:49:30.094Z,4.90
2019-03-12T08:51:56.055Z,5.00
2019-03-12T08:54:22.771Z,5.10
2019-03-12T08:56:48.764Z,5.10
2019-03-12T08:59:14.730Z,5.20
2019-03-12T09:01:42.623Z,5.20
2019-03-12T09:04:06.751Z,5.20
2019-03-12T09:06:32.729Z,5.20
2019-03-12T09:08:58.702Z,5.20
2019-03-12T09:11:24.683Z,5.20
2019-03-12T09:13:52.482Z,5.20
2019-03-12T09:16:16.676Z,5.20
2019-03-12T09:18:43.381Z,5.30
2019-03-12T09:21:09.360Z,5.30
2019-03-12T09:23:36.054Z,5.50
2019-03-12T09:26:02.040Z,5.40
2019-03-12T09:28:28.000Z,5.50
2019-03-12T09:30:53.997Z,5.70
2019-03-12T09:33:19.950Z,5.70
2019-03-12T09:35:45.941Z,5.90
2019-03-12T09:38:11.919Z,5.90
2019-03-12T09:40:37.866Z,6.00
2019-03-12T09:43:03.846Z,6.00
2019-03-12T09:45:29.829Z,6.10
2019-03-12T09:47:55.822Z,6.20
2019-03-12T09:50:22.522Z,6.20
2019-03-12T09:52:48.490Z,6.20
2019-03-12T09:55:14.506Z,6.30
2019-03-12T09:57:41.239Z,6.40
2019-03-12T10:00:16.112Z,6.40
2019-03-12T10:02:33.989Z,6.40
2019-03-12T10:04:59.963Z,6.50
2019-03-12T10:07:25.959Z,6.60
2019-03-12T10:09:52.648Z,6.60
2019-03-12T10:12:18.663Z,6.70
2019-03-12T10:14:44.627Z,6.70
2019-03-12T10:17:10.580Z,6.70
2019-03-12T10:19:36.611Z,6.70
2019-03-12T10:22:02.569Z,6.70
2019-03-12T10:24:29.046Z,6.80
2019-03-12T10:26:54.583Z,6.90
2019-03-12T10:29:20.646Z,6.90
2019-03-12T10:31:46.574Z,7.00
2019-03-12T10:34:12.572Z,7.00
2019-03-12T10:36:38.545Z,7.10
2019-03-12T10:39:05.270Z,7.20
2019-03-12T10:41:31.231Z,7.20
2019-03-12T10:43:57.281Z,7.30
2019-03-12T10:46:23.268Z,7.30
2019-03-12T10:48:49.256Z,7.40
2019-03-12T10:51:15.212Z,7.40
2019-03-12T10:53:41.935Z,7.50
2019-03-12T10:56:08.629Z,7.60
2019-03-12T10:58:34.612Z,7.60
2019-03-12T11:01:01.298Z,7.70
2019-03-12T11:03:27.280Z,7.70
2019-03-12T11:05:53.981Z,7.80
2019-03-12T11:08:19.990Z,7.80
2019-03-12T11:10:45.977Z,7.80
2019-03-12T11:13:14.454Z,7.90
2019-03-12T11:15:38.723Z,8.10
2019-03-12T11:18:04.689Z,8.00
2019-03-12T11:20:30.709Z,8.10
2019-03-12T11:22:56.690Z,8.10
2019-03-12T11:25:27.738Z,8.20
2019-03-12T11:27:49.422Z,8.20
2019-03-12T11:30:15.416Z,8.30
2019-03-12T11:32:41.397Z,8.40
2019-03-12T11:35:08.100Z,8.40
2019-03-12T11:37:34.396Z,8.30
2019-03-12T11:40:01.089Z,8.40
2019-03-12T11:42:26.150Z,8.50
2019-03-12T11:44:52.219Z,8.60
2019-03-12T11:47:18.300Z,8.60
2019-03-12T11:49:44.224Z,8.60
2019-03-12T11:52:10.200Z,8.50
2019-03-12T11:54:36.256Z,8.50
2019-03-12T11:57:02.256Z,8.60
2019-03-12T11:59:28.298Z,8.50
2019-03-12T12:01:54.255Z,8.60
2019-03-12T12:04:20.251Z,8.50
2019-03-12T12:06:46.237Z,8.60
2019-03-12T12:09:13.440Z,8.50
2019-03-12T12:11:39.070Z,8.50
2019-03-12T12:14:05.049Z,8.50
2019-03-12T12:16:31.058Z,8.50
2019-03-12T12:18:57.761Z,8.70
2019-03-12T12:21:23.762Z,8.70
2019-03-12T12:23:49.719Z,8.80
2019-03-12T12:26:16.492Z,9.00
2019-03-12T12:28:42.466Z,8.90
2019-03-12T12:31:08.483Z,9.00
2019-03-12T12:33:34.439Z,9.10
2019-03-12T12:36:00.425Z,9.20
2019-03-12T12:38:26.388Z,9.30
2019-03-12T12:40:53.122Z,9.50
2019-03-12T12:43:19.856Z,9.50
2019-03-12T12:45:46.649Z,9.40
2019-03-12T12:48:12.627Z,9.40
2019-03-12T12:50:38.599Z,9.30
2019-03-12T12:53:04.566Z,9.20
2019-03-12T12:55:31.326Z,9.20
2019-03-12T12:57:58.052Z,9.10
2019-03-12T13:00:24.798Z,8.80
2019-03-12T13:02:51.505Z,8.70
2019-03-12T13:05:17.483Z,8.70
2019-03-12T13:07:43.458Z,8.70
2019-03-12T13:10:09.419Z,8.70
2019-03-12T13:12:36.135Z,8.90
2019-03-12T13:15:02.104Z,8.90
2019-03-12T13:17:28.097Z,9.00
2019-03-12T13:19:54.928Z,9.20
2019-03-12T13:22:20.855Z,9.20
2019-03-12T13:24:46.816Z,9.20
2019-03-12T13:27:12.795Z,9.20
2019-03-12T13:29:38.757Z,9.30
2019-03-12T13:32:13.326Z,9.30
2019-03-12T13:34:30.786Z,9.40
2019-03-12T13:36:56.808Z,9.40
2019-03-12T13:39:23.506Z,9.40
2019-03-12T13:41:49.556Z,9.40
2019-03-12T13:44:15.550Z,9.40
2019-03-12T13:46:41.542Z,9.40
2019-03-12T13:49:07.669Z,9.50
2019-03-12T13:51:33.566Z,9.60
2019-03-12T13:53:59.568Z,9.70
2019-03-12T13:56:26.329Z,9.70
2019-03-12T13:58:52.320Z,9.70
2019-03-12T14:01:18.302Z,9.70
2019-03-12T14:03:44.320Z,9.70
2019-03-12T14:06:10.288Z,9.70
2019-03-12T14:08:36.275Z,9.70
2019-03-12T14:11:02.333Z,9.80
2019-03-12T14:13:28.359Z,9.80
2019-03-12T14:15:54.288Z,9.80
2019-03-12T14:18:20.275Z,9.80
2019-03-12T14:20:46.241Z,9.70
2019-03-12T14:23:12.994Z,9.70
2019-03-12T14:25:39.712Z,9.60
2019-03-12T14:28:05.710Z,9.60
2019-03-12T14:30:31.671Z,9.60
2019-03-12T14:32:57.672Z,9.50
2019-03-12T14:35:23.657Z,9.50
2019-03-12T14:37:49.654Z,9.50
2019-03-12T14:40:16.348Z,9.50
2019-03-12T14:42:42.333Z,9.50
2019-03-12T14:45:08.285Z,9.50
2019-03-12T14:47:34.291Z,9.40
2019-03-12T14:50:00.397Z,9.50
2019-03-12T14:52:26.314Z,9.50
2019-03-12T14:54:52.301Z,9.50
2019-03-12T14:57:18.305Z,9.50
2019-03-12T14:59:44.288Z,9.40
2019-03-12T15:02:10.264Z,9.50
2019-03-12T15:04:36.273Z,9.50
2019-03-12T15:07:02.251Z,9.50
2019-03-12T15:09:28.243Z,9.50
2019-03-12T15:11:54.203Z,9.50
2019-03-12T15:14:20.190Z,9.50
2019-03-12T15:16:46.172Z,9.40
2019-03-12T15:19:12.159Z,9.40
2019-03-12T15:21:38.869Z,9.40
2019-03-12T15:24:04.870Z,9.40
2019-03-12T15:26:30.828Z,9.40
2019-03-12T15:28:57.554Z,9.40
2019-03-12T15:31:23.530Z,9.40
2019-03-12T15:33:49.515Z,9.40
2019-03-12T15:36:15.487Z,9.30
2019-03-12T15:38:41.492Z,9.30
2019-03-12T15:41:07.479Z,9.30
2019-03-12T15:43:33.484Z,9.20
2019-03-12T15:45:59.456Z,9.20
2019-03-12T15:48:26.010Z,9.30
2019-03-12T15:50:51.439Z,9.20
2019-03-12T15:53:17.414Z,9.30
2019-03-12T15:55:44.146Z,9.30
2019-03-12T15:58:10.881Z,9.40
2019-03-12T16:00:36.867Z,9.40
2019-03-12T16:03:02.853Z,9.40
2019-03-12T16:05:28.891Z,9.40
2019-03-12T16:08:01.816Z,9.40
2019-03-12T16:10:27.830Z,9.40
2019-03-12T16:12:53.805Z,9.40
2019-03-12T16:15:19.797Z,9.30
2019-03-12T16:17:45.764Z,9.30
2019-03-12T16:20:11.761Z,9.30
2019-03-12T16:22:38.476Z,9.30
2019-03-12T16:25:04.489Z,9.30
2019-03-12T16:27:30.431Z,9.20
2019-03-12T16:29:57.175Z,9.20
2019-03-12T16:32:23.189Z,9.20
2019-03-12T16:34:49.229Z,9.20
2019-03-12T16:37:15.939Z,9.20
2019-03-12T16:39:41.942Z,9.20
2019-03-12T16:42:07.966Z,9.20
2019-03-12T16:44:33.966Z,9.10
2019-03-12T16:46:59.970Z,9.10
2019-03-12T16:49:25.951Z,9.00
2019-03-12T16:51:51.955Z,8.90
2019-03-12T16:54:17.911Z,8.90
2019-03-12T16:56:45.526Z,8.90
2019-03-12T16:59:10.665Z,8.80
2019-03-12T17:01:36.686Z,8.80
2019-03-12T17:04:02.645Z,8.80
2019-03-12T17:06:29.425Z,8.80
2019-03-12T17:08:55.387Z,8.80
2019-03-12T17:11:21.400Z,8.80
2019-03-12T17:13:47.363Z,8.80
2019-03-12T17:16:14.133Z,8.80
2019-03-12T17:18:40.112Z,8.80
2019-03-12T17:21:06.871Z,8.50
2019-03-12T17:23:33.579Z,8.40
2019-03-12T17:25:59.584Z,8.40
2019-03-12T17:28:25.561Z,8.40
2019-03-12T17:30:52.285Z,8.40
2019-03-12T17:33:18.292Z,8.30
2019-03-12T17:35:44.302Z,8.30
2019-03-12T17:38:10.299Z,8.30
2019-03-12T17:40:36.277Z,8.30
2019-03-12T17:43:03.012Z,8.30
2019-03-12T17:45:28.999Z,8.30
2019-03-12T17:47:54.988Z,8.30
2019-03-12T17:50:20.942Z,8.30
2019-03-12T17:52:47.728Z,8.30
2019-03-12T17:55:14.421Z,8.30
2019-03-12T17:57:40.412Z,8.30
2019-03-12T18:00:06.364Z,8.20
2019-03-12T18:02:42.054Z,8.20
2019-03-12T18:04:58.389Z,8.30
2019-03-12T18:07:24.396Z,8.20
2019-03-12T18:09:51.126Z,8.30
2019-03-12T18:12:17.870Z,8.30
2019-03-12T18:14:44.616Z,8.30
2019-03-12T18:17:10.691Z,8.30
2019-03-12T18:19:36.765Z,8.40
2019-03-12T18:22:02.776Z,8.30
2019-03-12T18:24:28.755Z,8.30
2019-03-12T18:26:54.776Z,8.20
2019-03-12T18:29:20.727Z,8.20
2019-03-12T18:31:46.708Z,8.20
2019-03-12T18:34:12.688Z,8.20
2019-03-12T18:36:38.644Z,8.10
2019-03-12T18:39:04.638Z,8.20
2019-03-12T18:41:30.581Z,8.10
2019-03-12T18:43:57.345Z,8.20
2019-03-12T18:46:23.317Z,8.20
2019-03-12T18:48:49.302Z,8.30
2019-03-12T18:51:15.277Z,8.30
2019-03-12T18:53:42.000Z,8.50
2019-03-12T18:56:07.961Z,8.50
2019-03-12T18:58:33.968Z,8.50
2019-03-12T19:01:00.722Z,8.50
2019-03-12T19:03:26.761Z,8.50
2019-03-12T19:05:52.750Z,8.50
2019-03-12T19:08:19.482Z,8.40
2019-03-12T19:10:46.214Z,8.30
2019-03-12T19:13:12.228Z,8.30
2019-03-12T19:15:38.210Z,8.30
2019-03-12T19:18:04.206Z,8.20
2019-03-12T19:20:32.842Z,8.20
2019-03-12T19:22:56.264Z,8.20
2019-03-12T19:25:22.245Z,8.10
2019-03-12T19:27:59.400Z,8.00
2019-03-12T19:30:14.294Z,7.80
2019-03-12T19:32:40.275Z,7.70
2019-03-12T19:35:06.227Z,7.60
2019-03-12T19:37:32.230Z,7.50
2019-03-12T19:39:58.222Z,7.50
2019-03-12T19:42:24.933Z,7.50
2019-03-12T19:44:50.935Z,7.50
2019-03-12T19:47:17.172Z,7.50
2019-03-12T19:49:43.170Z,7.50
2019-03-12T19:52:09.135Z,7.60
2019-03-12T19:54:35.872Z,7.60
2019-03-12T19:57:01.839Z,7.60
2019-03-12T19:59:27.841Z,7.60
2019-03-12T20:01:54.554Z,7.50
2019-03-12T20:04:20.555Z,7.60
2019-03-12T20:06:46.678Z,7.50
2019-03-12T20:09:12.611Z,7.40
2019-03-12T20:11:38.612Z,7.40
2019-03-12T20:14:04.603Z,7.40
2019-03-12T20:16:30.586Z,7.30
2019-03-12T20:18:56.577Z,7.30
2019-03-12T20:21:22.566Z,7.30
2019-03-12T20:23:49.280Z,7.40
2019-03-12T20:26:15.250Z,7.30
2019-03-12T20:28:41.246Z,7.40
2019-03-12T20:31:07.947Z,7.40
2019-03-12T20:33:33.900Z,7.40
2019-03-12T20:36:00.651Z,7.30
2019-03-12T20:38:27.345Z,7.20
2019-03-12T20:40:53.329Z,7.20
2019-03-12T20:43:19.296Z,7.10
2019-03-12T20:45:45.292Z,7.00
2019-03-12T20:48:11.294Z,6.90
2019-03-12T20:50:37.301Z,6.90
2019-03-12T20:53:04.028Z,6.70
2019-03-12T20:55:30.122Z,6.70
2019-03-12T20:57:56.100Z,6.70
2019-03-12T21:00:22.100Z,6.70
2019-03-12T21:02:48.820Z,6.60
2019-03-12T21:05:14.802Z,6.60
2019-03-12T21:07:40.758Z,6.60
2019-03-12T21:10:06.767Z,6.60
2019-03-12T21:12:32.746Z,6.60
2019-03-12T21:14:59.473Z,6.60
2019-03-12T21:17:25.431Z,6.60
2019-03-12T21:19:51.407Z,6.70
2019-03-12T21:22:17.390Z,6.60
2019-03-12T21:24:43.357Z,6.60
2019-03-12T21:27:09.398Z,6.70
2019-03-12T21:29:36.111Z,6.70
2019-03-12T21:32:02.108Z,6.60
2019-03-12T21:34:28.073Z,6.70
2019-03-12T21:36:54.811Z,5.60
2019-03-12T21:39:21.512Z,5.10
2019-03-12T21:41:47.614Z,5.10
2019-03-12T21:44:13.603Z,4.70
2019-03-12T21:46:40.338Z,4.50
2019-03-12T21:49:07.065Z,4.50
2019-03-12T21:51:33.047Z,4.40
2019-03-12T21:53:59.024Z,4.40
2019-03-12T21:56:25.010Z,4.50
2019-03-12T21:58:50.974Z,4.40
2019-03-12T22:01:17.709Z,4.40
2019-03-12T22:03:44.417Z,4.40
2019-03-12T22:06:10.407Z,4.40
2019-03-12T22:08:36.366Z,4.40
2019-03-12T22:11:02.367Z,4.40
2019-03-12T22:13:28.322Z,4.40
2019-03-12T22:15:54.322Z,4.40
2019-03-12T22:18:20.285Z,4.50
2019-03-12T22:20:46.244Z,4.40
2019-03-12T22:23:12.243Z,4.40
2019-03-12T22:25:38.926Z,4.50
2019-03-12T22:28:04.898Z,4.60
2019-03-12T22:30:30.851Z,4.50
2019-03-12T22:32:56.836Z,4.50
2019-03-12T22:35:22.777Z,4.50
2019-03-12T22:37:49.522Z,4.60
2019-03-12T22:40:16.212Z,4.60
2019-03-12T22:42:42.198Z,4.60
2019-03-12T22:45:08.160Z,4.60
2019-03-12T22:47:34.186Z,4.60
2019-03-12T22:50:00.263Z,4.60
2019-03-12T22:52:26.208Z,4.60
2019-03-12T22:54:52.160Z,4.60
2019-03-12T22:57:18.136Z,4.60
2019-03-12T22:59:44.092Z,4.60
2019-03-12T23:02:10.062Z,4.50
2019-03-12T23:04:36.805Z,4.50
2019-03-12T23:07:03.525Z,4.50
2019-03-12T23:09:29.488Z,4.50
2019-03-12T23:11:55.457Z,4.50
2019-03-12T23:14:21.436Z,4.50
2019-03-12T23:16:47.373Z,4.50
2019-03-12T23:19:13.345Z,4.50
2019-03-12T23:21:39.290Z,4.50
2019-03-12T23:24:05.282Z,4.50
2019-03-12T23:26:31.253Z,4.50
2019-03-12T23:28:57.243Z,4.50
2019-03-12T23:31:23.947Z,4.50
2019-03-12T23:33:49.925Z,4.40
2019-03-12T23:36:15.880Z,4.50
2019-03-12T23:38:41.870Z,4.50
2019-03-12T23:41:07.843Z,4.40
2019-03-12T23:43:33.835Z,4.40
2019-03-12T23:45:59.809Z,4.50
2019-03-12T23:48:25.795Z,4.60
2019-03-12T23:50:51.753Z,4.60
2019-03-12T23:53:17.729Z,4.70
2019-03-12T23:55:43.960Z,4.70
2019-03-12T23:58:10.082Z,4.60
